createdAt,value
2022-12-03T00:01:26.179Z,7.20
2022-12-03T00:03:53.187Z,5.90
2022-12-03T00:06:20.242Z,6.60
2022-12-03T00:08:47.073Z,6.40
2022-12-03T00:11:13.832Z,6.50
2022-12-03T00:13:40.780Z,6.50
2022-12-03T00:16:07.837Z,6.80
2022-12-03T00:18:34.645Z,6.50
2022-12-03T00:21:01.479Z,7.40
2022-12-03T00:23:28.381Z,7.90
2022-12-03T00:25:55.229Z,6.60
2022-12-03T00:28:22.120Z,6.50
2022-12-03T00:30:49.312Z,6.50
2022-12-03T00:33:16.361Z,6.50
2022-12-03T00:35:43.250Z,6.50
2022-12-03T00:38:10.093Z,6.50
2022-12-03T00:40:36.877Z,6.50
2022-12-03T00:43:03.834Z,7.60
2022-12-03T00:45:31.044Z,6.50
2022-12-03T00:47:57.785Z,7.30
2022-12-03T00:50:24.626Z,7.30
2022-12-03T00:52:51.417Z,6.40
2022-12-03T00:55:18.306Z,6.50
2022-12-03T00:57:45.160Z,6.50
2022-12-03T01:00:12.196Z,7.40
2022-12-03T01:02:39.043Z,6.50
2022-12-03T01:05:06.222Z,6.40
2022-12-03T01:07:33.223Z,6.40
2022-12-03T01:10:00.091Z,6.40
2022-12-03T01:12:28.724Z,6.40
2022-12-03T01:14:55.665Z,6.40
2022-12-03T01:17:22.691Z,6.40
2022-12-03T01:19:52.456Z,6.50
2022-12-03T01:22:19.336Z,6.40
2022-12-03T01:24:46.119Z,6.80
2022-12-03T01:27:12.928Z,6.40
2022-12-03T01:29:39.809Z,6.40
2022-12-03T01:32:19.697Z,6.40
2022-12-03T01:34:50.874Z,6.20
2022-12-03T01:37:18.291Z,6.30
2022-12-03T01:39:45.030Z,6.40
2022-12-03T01:42:12.789Z,7.10
2022-12-03T01:44:39.672Z,6.30
2022-12-03T01:47:06.825Z,6.30
2022-12-03T01:49:37.010Z,6.30
2022-12-03T01:52:03.732Z,6.30
2022-12-03T01:54:31.625Z,6.30
2022-12-03T01:56:58.465Z,6.30
2022-12-03T01:59:27.169Z,6.20
2022-12-03T02:01:53.913Z,6.20
2022-12-03T02:04:20.870Z,6.70
2022-12-03T02:06:47.733Z,6.20
2022-12-03T02:09:14.579Z,6.20
2022-12-03T02:11:43.378Z,6.20
2022-12-03T02:14:11.281Z,6.20
2022-12-03T02:16:38.090Z,6.00
2022-12-03T02:19:04.964Z,6.10
2022-12-03T02:21:31.815Z,6.10
2022-12-03T02:24:01.316Z,6.10
2022-12-03T02:26:28.186Z,7.30
2022-12-03T02:28:55.117Z,6.10
2022-12-03T02:31:22.207Z,7.20
2022-12-03T02:33:48.991Z,6.80
2022-12-03T02:36:15.781Z,6.30
2022-12-03T02:38:42.999Z,5.70
2022-12-03T02:41:10.395Z,6.70
2022-12-03T02:43:37.129Z,6.10
2022-12-03T02:46:07.229Z,6.20
2022-12-03T02:48:34.892Z,6.20
2022-12-03T02:51:02.654Z,6.10
2022-12-03T02:53:42.369Z,6.20
2022-12-03T02:56:09.262Z,6.20
2022-12-03T02:58:36.072Z,7.60
2022-12-03T03:01:02.938Z,6.10
2022-12-03T03:03:29.746Z,6.20
2022-12-03T03:05:59.483Z,6.20
2022-12-03T03:08:26.353Z,6.20
2022-12-03T03:10:53.203Z,6.40
2022-12-03T03:13:20.022Z,6.20
2022-12-03T03:15:46.778Z,6.20
2022-12-03T03:18:13.769Z,6.20
2022-12-03T03:20:40.617Z,6.20
2022-12-03T03:23:13.562Z,6.40
2022-12-03T03:25:41.062Z,6.20
2022-12-03T03:28:08.000Z,6.20
2022-12-03T03:30:35.002Z,6.20
2022-12-03T03:33:01.692Z,6.20
2022-12-03T03:35:28.394Z,6.20
2022-12-03T03:37:55.099Z,6.20
2022-12-03T03:40:21.912Z,6.20
2022-12-03T03:42:48.758Z,6.20
2022-12-03T03:45:15.507Z,6.50
2022-12-03T03:47:42.280Z,6.20
2022-12-03T03:50:09.191Z,6.20
2022-12-03T03:52:36.028Z,6.20
2022-12-03T03:55:03.061Z,6.20
2022-12-03T03:57:29.834Z,6.20
2022-12-03T03:59:57.718Z,6.20
2022-12-03T04:02:24.910Z,6.20
2022-12-03T04:04:51.910Z,6.20
2022-12-03T04:07:18.935Z,6.80
2022-12-03T04:09:45.707Z,7.40
2022-12-03T04:12:31.216Z,6.20
2022-12-03T04:14:57.963Z,6.40
2022-12-03T04:17:24.758Z,6.40
2022-12-03T04:19:51.482Z,6.20
2022-12-03T04:22:36.964Z,6.20
2022-12-03T04:25:22.402Z,6.50
2022-12-03T04:28:07.808Z,6.10
2022-12-03T04:30:34.523Z,6.20
2022-12-03T04:33:20.079Z,6.30
2022-12-03T04:35:46.892Z,7.10
2022-12-03T04:38:14.474Z,6.30
2022-12-03T04:40:59.982Z,6.20
2022-12-03T04:43:30.285Z,6.20
2022-12-03T04:45:57.608Z,6.10
2022-12-03T04:48:24.407Z,5.60
2022-12-03T04:50:51.225Z,6.10
2022-12-03T04:53:17.989Z,6.20
2022-12-03T04:55:44.861Z,6.10
2022-12-03T04:58:11.708Z,7.20
2022-12-03T05:00:38.486Z,6.10
2022-12-03T05:03:05.363Z,7.40
2022-12-03T05:05:32.309Z,6.10
2022-12-03T05:07:59.291Z,6.10
2022-12-03T05:10:26.092Z,6.10
2022-12-03T05:12:52.854Z,6.10
2022-12-03T05:15:19.615Z,6.10
2022-12-03T05:17:46.361Z,6.00
2022-12-03T05:20:31.753Z,6.00
2022-12-03T05:22:58.598Z,6.00
2022-12-03T05:25:25.332Z,6.40
2022-12-03T05:27:52.084Z,6.00
2022-12-03T05:30:18.899Z,6.00
2022-12-03T05:32:45.644Z,6.00
2022-12-03T05:35:12.374Z,6.00
2022-12-03T05:37:39.175Z,6.30
2022-12-03T05:40:06.275Z,5.90
2022-12-03T05:42:51.806Z,6.00
2022-12-03T05:45:18.796Z,6.00
2022-12-03T05:47:45.495Z,6.30
2022-12-03T05:50:12.336Z,6.00
2022-12-03T05:52:39.155Z,6.00
2022-12-03T05:55:06.609Z,6.00
2022-12-03T05:57:33.342Z,6.00
2022-12-03T06:00:00.047Z,6.00
2022-12-03T06:02:26.903Z,6.30
2022-12-03T06:04:54.243Z,6.00
2022-12-03T06:07:21.305Z,6.00
2022-12-03T06:09:48.161Z,6.00
2022-12-03T06:12:14.922Z,6.00
2022-12-03T06:14:41.641Z,5.40
2022-12-03T06:17:08.444Z,6.10
2022-12-03T06:19:35.238Z,6.10
2022-12-03T06:22:04.742Z,5.70
2022-12-03T06:24:31.462Z,6.10
2022-12-03T06:26:58.229Z,6.40
2022-12-03T06:29:24.976Z,6.20
2022-12-03T06:31:51.734Z,5.70
2022-12-03T06:34:18.493Z,6.20
2022-12-03T06:36:47.083Z,6.50
2022-12-03T06:39:13.857Z,6.20
2022-12-03T06:41:40.637Z,6.30
2022-12-03T06:44:07.564Z,6.20
2022-12-03T06:46:34.471Z,7.30
2022-12-03T06:49:01.330Z,6.20
2022-12-03T06:51:28.123Z,6.20
2022-12-03T06:53:54.914Z,5.70
2022-12-03T06:56:22.598Z,6.20
2022-12-03T06:58:49.512Z,6.20
2022-12-03T07:01:16.292Z,6.20
2022-12-03T07:03:43.323Z,6.20
2022-12-03T07:06:13.242Z,6.20
2022-12-03T07:08:40.183Z,6.10
2022-12-03T07:11:26.907Z,6.10
2022-12-03T07:13:53.666Z,6.20
2022-12-03T07:16:20.506Z,6.10
2022-12-03T07:18:47.295Z,6.10
2022-12-03T07:21:14.083Z,6.90
2022-12-03T07:23:40.882Z,6.10
2022-12-03T07:26:07.570Z,6.20
2022-12-03T07:28:34.733Z,6.50
2022-12-03T07:31:01.461Z,6.10
2022-12-03T07:33:28.208Z,5.80
2022-12-03T07:35:54.874Z,6.20
2022-12-03T07:38:21.687Z,6.10
2022-12-03T07:40:48.371Z,6.10
2022-12-03T07:43:15.083Z,6.10
2022-12-03T07:45:41.878Z,6.50
2022-12-03T07:48:08.616Z,5.80
2022-12-03T07:50:35.473Z,6.10
2022-12-03T07:53:02.332Z,6.00
2022-12-03T07:55:29.080Z,6.10
2022-12-03T07:57:58.894Z,6.20
2022-12-03T08:00:25.745Z,6.10
2022-12-03T08:02:52.639Z,6.10
2022-12-03T08:05:19.421Z,6.10
2022-12-03T08:07:46.196Z,6.10
2022-12-03T08:10:13.280Z,6.60
2022-12-03T08:12:46.001Z,7.20
2022-12-03T08:15:14.046Z,6.10
2022-12-03T08:17:42.467Z,6.10
2022-12-03T08:20:16.162Z,6.10
2022-12-03T08:22:43.290Z,6.10
2022-12-03T08:25:15.817Z,6.10
2022-12-03T08:27:42.638Z,6.10
2022-12-03T08:30:13.208Z,6.10
2022-12-03T08:32:39.950Z,6.20
2022-12-03T08:35:11.448Z,6.40
2022-12-03T08:37:38.261Z,6.20
2022-12-03T08:40:07.258Z,6.80
2022-12-03T08:42:43.218Z,6.20
2022-12-03T08:45:32.159Z,6.20
2022-12-03T08:47:59.895Z,6.20
2022-12-03T08:50:27.620Z,6.20
2022-12-03T08:52:54.910Z,6.00
2022-12-03T08:55:36.228Z,6.30
2022-12-03T08:58:26.324Z,6.30
2022-12-03T09:00:57.305Z,6.30
2022-12-03T09:03:24.658Z,6.40
2022-12-03T09:06:00.208Z,6.40
2022-12-03T09:08:27.005Z,6.40
2022-12-03T09:10:56.937Z,6.50
2022-12-03T09:13:43.631Z,6.60
2022-12-03T09:16:12.146Z,6.50
2022-12-03T09:18:39.090Z,6.60
2022-12-03T09:21:06.022Z,6.50
2022-12-03T09:23:32.730Z,6.60
2022-12-03T09:25:59.411Z,6.60
2022-12-03T09:28:26.118Z,6.70
2022-12-03T09:30:52.811Z,6.80
2022-12-03T09:33:19.504Z,6.70
2022-12-03T09:35:46.336Z,6.70
2022-12-03T09:38:13.110Z,6.80
2022-12-03T09:40:39.861Z,6.60
2022-12-03T09:43:06.733Z,6.90
2022-12-03T09:45:33.445Z,7.80
2022-12-03T09:48:00.369Z,7.00
2022-12-03T09:50:30.171Z,7.00
2022-12-03T09:55:39.138Z,7.10
2022-12-03T09:58:12.617Z,7.10
2022-12-03T10:00:39.621Z,7.10
2022-12-03T10:03:06.308Z,7.20
2022-12-03T10:05:33.377Z,7.20
2022-12-03T10:08:04.418Z,7.30
2022-12-03T10:10:31.203Z,7.40
2022-12-03T10:12:58.060Z,7.40
2022-12-03T10:15:27.867Z,8.80
2022-12-03T10:17:55.074Z,7.40
2022-12-03T10:20:22.394Z,7.60
2022-12-03T10:22:49.358Z,7.50
2022-12-03T10:25:17.326Z,7.50
2022-12-03T10:27:44.377Z,7.60
2022-12-03T10:30:15.486Z,7.80
2022-12-03T10:32:46.269Z,7.60
2022-12-03T10:35:13.053Z,7.70
2022-12-03T10:37:59.209Z,7.70
2022-12-03T10:40:27.253Z,7.80
2022-12-03T10:42:54.269Z,7.80
2022-12-03T10:45:22.674Z,8.00
2022-12-03T10:48:02.270Z,7.90
2022-12-03T10:50:29.041Z,7.90
2022-12-03T10:52:55.902Z,8.00
2022-12-03T10:55:22.635Z,7.90
2022-12-03T10:57:54.686Z,7.80
2022-12-03T11:00:21.636Z,7.80
2022-12-03T11:02:54.936Z,7.80
2022-12-03T11:05:26.888Z,7.90
2022-12-03T11:07:53.696Z,7.90
2022-12-03T11:10:20.681Z,8.70
2022-12-03T11:13:06.174Z,7.90
2022-12-03T11:15:43.071Z,8.00
2022-12-03T11:18:09.983Z,8.00
2022-12-03T11:20:42.667Z,8.10
2022-12-03T11:23:09.811Z,8.10
2022-12-03T11:25:46.918Z,8.30
2022-12-03T11:28:13.931Z,8.40
2022-12-03T11:30:50.119Z,8.30
2022-12-03T11:33:19.989Z,8.40
2022-12-03T11:36:05.535Z,8.40
2022-12-03T11:38:38.497Z,8.40
2022-12-03T11:41:23.724Z,8.40
2022-12-03T11:43:53.577Z,8.10
2022-12-03T11:46:21.185Z,8.40
2022-12-03T11:48:48.204Z,8.40
2022-12-03T11:51:15.170Z,8.60
2022-12-03T11:53:41.950Z,8.40
2022-12-03T11:56:09.174Z,8.40
2022-12-03T11:58:39.971Z,8.40
2022-12-03T12:01:07.212Z,8.40
2022-12-03T12:03:35.101Z,8.80
2022-12-03T12:06:15.061Z,8.30
2022-12-03T12:08:42.626Z,8.30
2022-12-03T12:11:18.524Z,8.10
2022-12-03T12:13:45.205Z,8.20
2022-12-03T12:16:12.137Z,8.90
2022-12-03T12:18:42.679Z,8.30
2022-12-03T12:21:28.468Z,8.20
2022-12-03T12:23:55.271Z,8.20
2022-12-03T12:26:22.117Z,8.20
2022-12-03T12:28:50.854Z,8.20
2022-12-03T12:31:17.834Z,8.30
2022-12-03T12:33:44.724Z,8.20
2022-12-03T12:36:11.549Z,8.40
2022-12-03T12:38:41.476Z,8.30
2022-12-03T12:41:09.659Z,8.30
2022-12-03T12:43:38.820Z,8.40
2022-12-03T12:46:45.530Z,8.40
2022-12-03T12:48:59.844Z,8.40
2022-12-03T12:51:26.920Z,8.50
2022-12-03T12:53:53.891Z,8.50
2022-12-03T12:56:34.781Z,9.00
2022-12-03T12:59:10.604Z,8.60
2022-12-03T13:01:37.766Z,8.60
2022-12-03T13:04:13.754Z,7.90
2022-12-03T13:06:40.539Z,8.60
2022-12-03T13:09:15.117Z,8.60
2022-12-03T13:12:14.719Z,8.60
2022-12-03T13:14:41.502Z,8.60
2022-12-03T13:17:13.668Z,8.50
2022-12-03T13:19:47.566Z,9.10
2022-12-03T13:22:21.216Z,8.40
2022-12-03T13:24:51.861Z,8.40
2022-12-03T13:27:18.580Z,8.40
2022-12-03T13:30:14.504Z,9.20
2022-12-03T13:32:41.341Z,8.40
2022-12-03T13:35:13.903Z,8.40
2022-12-03T13:37:40.727Z,8.30
2022-12-03T13:40:27.848Z,8.30
2022-12-03T13:42:55.221Z,8.20
2022-12-03T13:45:24.772Z,8.20
2022-12-03T13:48:02.971Z,8.10
2022-12-03T13:50:34.375Z,8.20
2022-12-03T13:53:02.132Z,8.20
2022-12-03T13:55:45.593Z,8.20
2022-12-03T13:58:12.451Z,8.20
2022-12-03T14:00:39.473Z,8.10
2022-12-03T14:03:06.165Z,8.10
2022-12-03T14:05:32.884Z,8.10
2022-12-03T14:08:02.278Z,8.10
2022-12-03T14:10:29.445Z,8.10
2022-12-03T14:12:56.559Z,8.00
2022-12-03T14:15:23.393Z,8.40
2022-12-03T14:17:50.226Z,7.90
2022-12-03T14:20:17.730Z,8.00
2022-12-03T14:22:44.467Z,8.00
2022-12-03T14:25:11.375Z,8.00
2022-12-03T14:27:38.527Z,7.90
2022-12-03T14:30:05.622Z,8.00
2022-12-03T14:32:32.451Z,7.90
2022-12-03T14:34:59.215Z,7.10
2022-12-03T14:37:28.940Z,7.90
2022-12-03T14:39:56.050Z,7.90
2022-12-03T14:42:23.082Z,7.90
2022-12-03T14:44:50.329Z,8.10
2022-12-03T14:47:18.154Z,7.80
2022-12-03T14:49:44.944Z,7.80
2022-12-03T14:52:12.852Z,7.80
2022-12-03T14:54:44.965Z,7.80
2022-12-03T14:57:12.824Z,7.70
2022-12-03T14:59:40.280Z,7.80
2022-12-03T15:02:07.103Z,7.80
2022-12-03T15:04:34.745Z,7.70
2022-12-03T15:07:01.468Z,7.70
2022-12-03T15:09:28.193Z,7.70
2022-12-03T15:11:54.958Z,7.80
2022-12-03T15:14:21.681Z,7.60
2022-12-03T15:16:48.482Z,7.50
2022-12-03T15:19:15.319Z,7.60
2022-12-03T15:21:42.184Z,7.60
2022-12-03T15:24:10.670Z,8.70
2022-12-03T15:26:37.388Z,7.60
2022-12-03T15:29:04.136Z,7.80
2022-12-03T15:31:30.921Z,7.60
2022-12-03T15:33:57.700Z,7.60
2022-12-03T15:36:24.490Z,7.60
2022-12-03T15:38:51.229Z,7.50
2022-12-03T15:41:21.479Z,7.70
2022-12-03T15:43:48.478Z,7.50
2022-12-03T15:46:15.169Z,7.50
2022-12-03T15:48:41.957Z,7.50
2022-12-03T15:51:08.654Z,7.50
2022-12-03T15:53:35.360Z,7.50
2022-12-03T15:56:02.161Z,7.40
2022-12-03T15:58:28.944Z,7.50
2022-12-03T16:00:55.762Z,7.50
2022-12-03T16:03:23.072Z,7.10
2022-12-03T16:05:57.161Z,7.50
2022-12-03T16:08:23.914Z,7.40
2022-12-03T16:10:50.700Z,7.40
2022-12-03T16:13:17.408Z,7.40
2022-12-03T16:15:44.255Z,7.40
2022-12-03T16:18:11.012Z,8.20
2022-12-03T16:20:37.763Z,7.20
2022-12-03T16:23:04.606Z,7.40
2022-12-03T16:25:38.930Z,7.60
2022-12-03T16:28:05.756Z,7.40
2022-12-03T16:30:32.527Z,7.40
2022-12-03T16:32:59.411Z,7.40
2022-12-03T16:35:26.242Z,7.50
2022-12-03T16:37:53.177Z,7.40
2022-12-03T16:40:20.511Z,7.40
2022-12-03T16:42:47.312Z,7.40
2022-12-03T16:45:40.631Z,7.40
2022-12-03T16:48:07.346Z,7.50
2022-12-03T16:50:37.265Z,7.30
2022-12-03T16:53:04.369Z,7.40
2022-12-03T16:55:32.314Z,7.10
2022-12-03T16:57:59.136Z,7.30
2022-12-03T17:00:26.626Z,7.30
2022-12-03T17:02:53.555Z,7.40
2022-12-03T17:05:20.475Z,7.50
2022-12-03T17:07:47.459Z,7.30
2022-12-03T17:10:14.414Z,6.60
2022-12-03T17:13:08.297Z,7.40
2022-12-03T17:15:28.019Z,8.00
2022-12-03T17:17:54.936Z,7.60
2022-12-03T17:20:21.645Z,7.20
2022-12-03T17:22:48.629Z,7.20
2022-12-03T17:25:15.390Z,7.20
2022-12-03T17:27:45.392Z,7.20
2022-12-03T17:30:12.615Z,7.20
2022-12-03T17:32:39.654Z,7.20
2022-12-03T17:35:06.674Z,7.70
2022-12-03T17:37:33.533Z,7.00
2022-12-03T17:40:00.357Z,7.10
2022-12-03T17:42:27.128Z,7.20
2022-12-03T17:44:53.878Z,7.10
2022-12-03T17:47:20.644Z,7.10
2022-12-03T17:49:47.404Z,8.10
2022-12-03T17:52:14.148Z,7.20
2022-12-03T17:55:09.205Z,7.20
2022-12-03T17:57:30.692Z,7.10
2022-12-03T17:59:57.559Z,7.10
2022-12-03T18:02:24.477Z,7.60
2022-12-03T18:04:51.270Z,7.10
2022-12-03T18:07:18.066Z,7.10
2022-12-03T18:09:44.820Z,7.10
2022-12-03T18:12:11.782Z,7.00
2022-12-03T18:14:38.655Z,7.10
2022-12-03T18:17:05.638Z,6.80
2022-12-03T18:19:32.364Z,7.00
2022-12-03T18:21:59.221Z,7.10
2022-12-03T18:24:26.068Z,6.90
2022-12-03T18:26:52.952Z,7.30
2022-12-03T18:29:20.044Z,7.90
2022-12-03T18:31:46.864Z,7.80
2022-12-03T18:34:13.807Z,6.90
2022-12-03T18:36:40.730Z,6.90
2022-12-03T18:39:09.393Z,7.30
2022-12-03T18:41:36.968Z,6.70
2022-12-03T18:44:04.116Z,6.80
2022-12-03T18:46:52.262Z,6.70
2022-12-03T18:49:17.856Z,6.80
2022-12-03T18:51:44.775Z,6.70
2022-12-03T18:54:12.684Z,6.70
2022-12-03T18:56:40.296Z,6.70
2022-12-03T18:59:09.530Z,6.90
2022-12-03T19:01:36.526Z,6.60
2022-12-03T19:04:03.407Z,6.60
2022-12-03T19:06:30.813Z,6.70
2022-12-03T19:08:57.781Z,6.60
2022-12-03T19:11:24.681Z,6.50
2022-12-03T19:13:52.194Z,7.10
2022-12-03T19:16:20.063Z,6.50
2022-12-03T19:18:47.004Z,6.50
2022-12-03T19:21:14.500Z,6.50
2022-12-03T19:23:42.779Z,7.70
2022-12-03T19:26:12.284Z,6.50
2022-12-03T19:28:39.044Z,7.80
2022-12-03T19:31:12.908Z,6.40
2022-12-03T19:33:40.093Z,6.40
2022-12-03T19:36:07.488Z,6.60
2022-12-03T19:38:34.327Z,6.40
2022-12-03T19:41:06.507Z,6.50
2022-12-03T19:43:34.172Z,6.30
2022-12-03T19:46:04.585Z,6.40
2022-12-03T19:48:31.900Z,6.40
2022-12-03T19:51:32.519Z,6.60
2022-12-03T19:53:49.398Z,6.40
2022-12-03T19:56:17.075Z,6.40
2022-12-03T19:58:45.228Z,6.50
2022-12-03T20:01:12.943Z,6.80
2022-12-03T20:03:43.505Z,6.40
2022-12-03T20:06:10.410Z,6.40
2022-12-03T20:08:40.093Z,6.40
2022-12-03T20:11:14.172Z,6.60
2022-12-03T20:13:41.255Z,6.40
2022-12-03T20:16:09.080Z,6.40
2022-12-03T20:18:35.852Z,6.40
2022-12-03T20:21:02.798Z,6.80
2022-12-03T20:23:29.541Z,7.20
2022-12-03T20:25:56.337Z,6.40
2022-12-03T20:28:23.238Z,7.00
2022-12-03T20:30:59.466Z,7.40
2022-12-03T20:33:26.286Z,6.40
2022-12-03T20:35:53.913Z,6.70
2022-12-03T20:38:21.348Z,6.30
2022-12-03T20:40:48.123Z,6.60
2022-12-03T20:43:14.904Z,6.40
2022-12-03T20:45:41.752Z,6.30
2022-12-03T20:48:08.627Z,6.20
2022-12-03T20:50:37.485Z,6.30
2022-12-03T20:53:23.693Z,6.20
2022-12-03T20:55:58.144Z,7.00
2022-12-03T20:58:24.927Z,6.10
2022-12-03T21:00:51.817Z,6.10
2022-12-03T21:03:18.710Z,6.10
2022-12-03T21:05:46.578Z,6.10
2022-12-03T21:08:13.361Z,6.10
2022-12-03T21:10:46.149Z,6.30
2022-12-03T21:13:16.538Z,5.90
2022-12-03T21:15:43.530Z,5.90
2022-12-03T21:18:11.501Z,5.90
2022-12-03T21:20:41.743Z,6.60
2022-12-03T21:23:08.692Z,5.90
2022-12-03T21:25:36.137Z,6.30
2022-12-03T21:28:06.733Z,6.00
2022-12-03T21:30:33.873Z,5.90
2022-12-03T21:33:01.215Z,5.80
2022-12-03T21:35:28.055Z,5.80
2022-12-03T21:37:54.968Z,5.80
2022-12-03T21:40:21.713Z,5.80
2022-12-03T21:42:48.841Z,5.70
2022-12-03T21:45:18.880Z,5.70
2022-12-03T21:47:49.384Z,5.70
2022-12-03T21:50:16.893Z,5.70
2022-12-03T21:52:44.446Z,5.10
2022-12-03T21:55:11.354Z,5.60
2022-12-03T21:57:38.239Z,5.60
2022-12-03T22:00:08.680Z,6.10
2022-12-03T22:02:35.694Z,5.60
2022-12-03T22:05:03.520Z,5.60
2022-12-03T22:07:32.154Z,5.50
2022-12-03T22:10:02.007Z,5.60
2022-12-03T22:12:28.939Z,5.50
2022-12-03T22:14:57.196Z,5.50
2022-12-03T22:17:24.367Z,7.00
2022-12-03T22:19:54.189Z,5.70
2022-12-03T22:22:21.706Z,4.80
2022-12-03T22:24:48.552Z,5.60
2022-12-03T22:27:16.640Z,5.60
2022-12-03T22:29:43.476Z,5.60
2022-12-03T22:32:13.175Z,5.70
2022-12-03T22:34:41.389Z,7.00
2022-12-03T22:37:08.330Z,7.00
2022-12-03T22:39:35.182Z,6.90
2022-12-03T22:42:02.218Z,5.70
2022-12-03T22:44:29.268Z,5.80
2022-12-03T22:46:56.071Z,5.30
2022-12-03T22:49:23.663Z,6.40
2022-12-03T22:51:50.555Z,5.70
2022-12-03T22:54:23.969Z,6.00
2022-12-03T22:56:52.271Z,4.60
2022-12-03T22:59:19.171Z,5.80
2022-12-03T23:01:49.389Z,5.80
2022-12-03T23:04:16.491Z,5.80
2022-12-03T23:06:43.901Z,5.90
2022-12-03T23:09:10.733Z,5.70
2022-12-03T23:11:38.619Z,5.90
2022-12-03T23:14:05.393Z,5.80
2022-12-03T23:16:32.903Z,6.50
2022-12-03T23:19:00.099Z,5.80
2022-12-03T23:21:30.134Z,5.80
2022-12-03T23:24:00.818Z,6.60
2022-12-03T23:26:27.643Z,5.80
2022-12-03T23:28:54.391Z,5.90
2022-12-03T23:31:25.318Z,5.90
2022-12-03T23:33:52.284Z,6.00
2022-12-03T23:36:19.217Z,5.90
2022-12-03T23:38:47.023Z,6.00
2022-12-03T23:41:18.945Z,6.60
2022-12-03T23:43:45.997Z,5.70
2022-12-03T23:46:14.875Z,6.50
2022-12-03T23:48:41.928Z,6.40
2022-12-03T23:51:09.920Z,6.00
2022-12-03T23:53:55.431Z,6.00
2022-12-03T23:56:26.525Z,6.00
2022-12-03T23:58:53.232Z,6.10
